Time;durP1;ratioP1;P1;durP2;ratioP2;P2;SDS_P1;SDS_P2;PMS_P1;PMS_P2;Temp;Humidity;BMP_temperature;BMP_pressure;BME280_temperature;BME280_humidity;BME280_pressure;Samples;Min_cycle;Max_cycle;Signal;HPM_P1;HPM_P2
2021/12/29 00:01:05;;;;;;;2.75;2.03;;;10.60;90.30;;;;;;4995430;28;20032;-84
2021/12/29 00:03:30;;;;;;;2.63;2.40;;;10.70;90.40;;;;;;4992957;28;20068;-83
2021/12/29 00:05:56;;;;;;;4.70;2.40;;;10.70;90.30;;;;;;5004217;28;20050;-83
2021/12/29 00:08:21;;;;;;;3.30;2.33;;;10.60;90.30;;;;;;4994576;28;20044;-84
2021/12/29 00:10:54;;;;;;;3.55;1.88;;;10.60;90.30;;;;;;4996810;28;20389;-83
2021/12/29 00:13:20;;;;;;;4.57;2.53;;;10.60;90.30;;;;;;4991915;28;20445;-84
2021/12/29 00:15:45;;;;;;;2.70;2.22;;;10.60;90.30;;;;;;5001719;28;20030;-82
2021/12/29 00:18:11;;;;;;;3.65;2.47;;;10.70;90.30;;;;;;4993887;28;20160;-84
2021/12/29 00:20:37;;;;;;;3.65;2.33;;;10.60;90.30;;;;;;5000657;28;20117;-82
2021/12/29 00:23:04;;;;;;;4.72;2.88;;;10.60;90.30;;;;;;4994828;28;20037;-82
2021/12/29 00:25:31;;;;;;;3.17;2.10;;;10.60;90.30;;;;;;4991109;28;20037;-84
2021/12/29 00:27:59;;;;;;;4.13;2.53;;;10.60;90.30;;;;;;4996005;28;20096;-84
2021/12/29 00:30:25;;;;;;;4.65;2.58;;;10.60;90.30;;;;;;4986390;28;20080;-85
2021/12/29 00:32:51;;;;;;;4.13;2.90;;;10.70;90.30;;;;;;4990213;28;20033;-84
2021/12/29 00:35:17;;;;;;;3.72;2.40;;;10.60;90.30;;;;;;4988409;28;20033;-84
2021/12/29 00:37:43;;;;;;;4.22;2.80;;;10.60;90.30;;;;;;4987116;28;20058;-83
2021/12/29 00:40:11;;;;;;;2.58;2.35;;;10.60;90.30;;;;;;4986853;28;20218;-83
2021/12/29 00:42:38;;;;;;;2.70;1.95;;;10.70;90.30;;;;;;4990364;28;20129;-82
2021/12/29 00:45:04;;;;;;;3.10;2.30;;;10.60;90.30;;;;;;4981925;28;20485;-81
2021/12/29 00:47:32;;;;;;;2.88;2.00;;;10.60;90.30;;;;;;4985931;28;20023;-82
2021/12/29 00:49:59;;;;;;;3.63;2.00;;;10.60;90.30;;;;;;4987368;28;20072;-83
2021/12/29 00:52:25;;;;;;;3.80;2.58;;;10.60;90.60;;;;;;4985810;28;20033;-82
2021/12/29 00:54:50;;;;;;;3.10;2.20;;;10.60;90.30;;;;;;4990255;28;20113;-82
2021/12/29 00:57:16;;;;;;;3.30;2.17;;;10.60;90.40;;;;;;4987173;28;20054;-81
2021/12/29 00:59:42;;;;;;;3.20;2.25;;;10.60;90.40;;;;;;4988223;28;20030;-82
2021/12/29 01:02:08;;;;;;;3.88;2.63;;;10.60;90.40;;;;;;4987117;28;20018;-83
2021/12/29 01:04:34;;;;;;;4.32;2.50;;;10.60;90.40;;;;;;4987937;28;20525;-82
2021/12/29 01:06:59;;;;;;;3.63;2.70;;;10.60;90.40;;;;;;4990469;28;20030;-83
2021/12/29 01:09:25;;;;;;;4.97;3.20;;;10.60;90.40;;;;;;4985267;28;20097;-83
2021/12/29 01:11:55;;;;;;;5.80;3.20;;;10.60;90.40;;;;;;4984559;28;20030;-84
2021/12/29 01:14:22;;;;;;;4.55;2.65;;;10.60;90.40;;;;;;4988113;28;20033;-83
2021/12/29 01:16:49;;;;;;;3.85;2.70;;;10.60;90.40;;;;;;4987355;28;20031;-83
2021/12/29 01:19:20;;;;;;;5.07;3.45;;;10.70;90.40;;;;;;4989634;28;20446;-82
2021/12/29 01:21:50;;;;;;;7.00;3.40;;;10.60;90.40;;;;;;4990682;28;20026;-85
2021/12/29 01:24:17;;;;;;;4.93;3.17;;;10.60;90.70;;;;;;4989231;28;20088;-81
2021/12/29 01:26:43;;;;;;;4.93;3.00;;;10.60;90.40;;;;;;4990218;28;20023;-82
2021/12/29 01:29:10;;;;;;;5.13;2.95;;;10.70;90.40;;;;;;4983519;28;20106;-80
2021/12/29 01:31:36;;;;;;;7.53;4.55;;;10.70;90.40;;;;;;4985763;28;20019;-80
2021/12/29 01:34:04;;;;;;;8.23;4.57;;;10.70;90.30;;;;;;4988498;28;20109;-83
2021/12/29 01:36:35;;;;;;;6.97;4.47;;;10.60;90.30;;;;;;4987803;28;20027;-81
2021/12/29 01:39:02;;;;;;;9.07;4.72;;;10.60;90.30;;;;;;4990262;28;20054;-80
2021/12/29 01:41:28;;;;;;;6.93;4.05;;;10.60;90.40;;;;;;4989585;28;20034;-80
2021/12/29 01:43:54;;;;;;;8.55;3.78;;;10.60;90.40;;;;;;4996255;28;20044;-80
2021/12/29 01:46:20;;;;;;;6.38;3.78;;;10.70;90.40;;;;;;4986038;28;20551;-79
2021/12/29 01:48:45;;;;;;;6.40;3.53;;;10.70;90.40;;;;;;4991101;28;20022;-79
2021/12/29 01:51:12;;;;;;;7.80;4.20;;;10.70;90.40;;;;;;4988379;28;20045;-80
2021/12/29 01:53:47;;;;;;;7.05;4.47;;;10.70;90.30;;;;;;4988890;28;20034;-82
2021/12/29 01:56:12;;;;;;;10.32;4.57;;;10.70;90.30;;;;;;4989022;28;20441;-82
2021/12/29 01:58:40;;;;;;;6.95;4.10;;;10.70;90.30;;;;;;4984367;28;20030;-83
2021/12/29 02:01:05;;;;;;;6.80;3.80;;;10.70;90.30;;;;;;4990043;28;20049;-85
2021/12/29 02:03:31;;;;;;;6.60;3.97;;;10.70;90.30;;;;;;4995511;28;20069;-84
2021/12/29 02:05:57;;;;;;;6.95;3.80;;;10.70;90.30;;;;;;4991498;28;20022;-81
2021/12/29 02:08:24;;;;;;;6.70;4.05;;;10.80;90.30;;;;;;4989786;28;20033;-83
2021/12/29 02:10:52;;;;;;;6.25;3.83;;;10.80;90.30;;;;;;4996525;28;21401;-81
2021/12/29 02:13:18;;;;;;;6.63;4.25;;;10.80;90.20;;;;;;4992737;28;20026;-83
2021/12/29 02:15:44;;;;;;;7.70;3.90;;;10.80;90.20;;;;;;4993288;28;20054;-82
2021/12/29 02:18:15;;;;;;;6.32;3.97;;;10.80;90.20;;;;;;4992580;28;20046;-83
2021/12/29 02:20:45;;;;;;;8.13;4.70;;;10.80;90.50;;;;;;4999063;28;20084;-83
2021/12/29 02:23:14;;;;;;;5.47;3.47;;;10.80;90.20;;;;;;4996799;28;20038;-86
2021/12/29 02:25:49;;;;;;;4.90;3.30;;;10.80;90.20;;;;;;4988746;28;20058;-86
2021/12/29 02:28:29;;;;;;;7.32;4.28;;;10.80;90.20;;;;;;4994979;28;20027;-86
2021/12/29 02:30:55;;;;;;;8.57;4.32;;;10.70;90.20;;;;;;4993590;28;20488;-87
2021/12/29 02:33:23;;;;;;;6.28;3.70;;;10.70;90.20;;;;;;4992824;28;20035;-85
2021/12/29 02:35:49;;;;;;;9.15;4.43;;;10.70;90.30;;;;;;5006584;28;20021;-86
2021/12/29 02:38:27;;;;;;;7.63;3.97;;;10.70;90.30;;;;;;4992372;28;20027;-86
2021/12/29 02:40:55;;;;;;;9.88;4.35;;;10.70;90.30;;;;;;4999013;28;20453;-86
2021/12/29 02:43:22;;;;;;;6.88;3.53;;;10.70;90.30;;;;;;5000711;28;20056;-85
2021/12/29 02:45:51;;;;;;;5.68;3.80;;;10.70;90.30;;;;;;5001559;28;20690;-81
2021/12/29 02:48:18;;;;;;;6.68;4.70;;;10.70;90.30;;;;;;4984720;28;20039;-82
2021/12/29 02:50:44;;;;;;;7.72;4.60;;;10.70;90.20;;;;;;4998549;28;20018;-82
2021/12/29 02:53:12;;;;;;;6.10;3.78;;;10.70;90.20;;;;;;4996321;28;20239;-82
2021/12/29 02:55:38;;;;;;;6.30;4.53;;;10.70;90.30;;;;;;5000824;28;20026;-81
2021/12/29 02:58:03;;;;;;;5.22;3.95;;;10.80;90.20;;;;;;4991199;28;20026;-84
2021/12/29 03:00:29;;;;;;;5.45;3.60;;;10.70;90.20;;;;;;4997363;28;20501;-84
2021/12/29 03:02:54;;;;;;;4.47;3.40;;;10.80;90.20;;;;;;5001429;28;20496;-84
2021/12/29 03:05:23;;;;;;;5.55;3.40;;;10.80;90.20;;;;;;4998236;28;20030;-84
2021/12/29 03:07:49;;;;;;;6.32;4.00;;;10.80;90.10;;;;;;4995530;28;20022;-83
2021/12/29 03:10:15;;;;;;;6.43;4.38;;;10.90;90.20;;;;;;4997102;28;20046;-82
2021/12/29 03:12:40;;;;;;;6.47;3.70;;;10.80;90.10;;;;;;5001471;28;20113;-82
2021/12/29 03:15:06;;;;;;;5.53;3.22;;;10.90;90.10;;;;;;5000418;28;20402;-81
2021/12/29 03:17:32;;;;;;;6.30;3.33;;;10.90;90.10;;;;;;4997758;28;20034;-81
2021/12/29 03:19:58;;;;;;;5.53;3.30;;;10.90;90.10;;;;;;4993429;28;20079;-80
2021/12/29 03:22:23;;;;;;;8.00;4.13;;;10.90;90.10;;;;;;4998889;28;20040;-81
2021/12/29 03:24:48;;;;;;;5.65;3.40;;;10.90;90.00;;;;;;4997272;28;20110;-82
2021/12/29 03:27:14;;;;;;;7.38;4.45;;;11.00;90.00;;;;;;5000101;28;20031;-80
2021/12/29 03:29:40;;;;;;;9.68;4.22;;;11.00;90.00;;;;;;4991054;28;20368;-79
2021/12/29 03:32:08;;;;;;;8.32;4.28;;;10.90;89.90;;;;;;4992239;28;20030;-82
2021/12/29 03:34:34;;;;;;;8.57;4.75;;;10.90;90.00;;;;;;5002527;28;20022;-82
2021/12/29 03:37:00;;;;;;;6.63;4.13;;;11.00;89.90;;;;;;5000311;28;20041;-83
2021/12/29 03:39:27;;;;;;;6.07;3.38;;;10.90;89.90;;;;;;4991714;28;20085;-83
2021/12/29 03:41:53;;;;;;;6.30;3.35;;;11.00;90.00;;;;;;4999507;28;20017;-83
2021/12/29 03:44:19;;;;;;;6.32;3.80;;;11.00;90.00;;;;;;4988446;28;20042;-84
2021/12/29 03:46:44;;;;;;;8.10;4.28;;;11.00;89.90;;;;;;5003539;28;20018;-84
2021/12/29 03:49:10;;;;;;;4.53;3.33;;;10.90;89.80;;;;;;5003281;28;20033;-82
2021/12/29 03:51:36;;;;;;;7.85;3.80;;;10.90;89.90;;;;;;5001644;28;20026;-82
2021/12/29 03:54:04;;;;;;;5.70;3.13;;;10.90;89.90;;;;;;5004702;28;20021;-82
2021/12/29 03:56:30;;;;;;;6.65;3.50;;;10.90;89.90;;;;;;4996325;28;20018;-82
2021/12/29 03:58:56;;;;;;;6.75;3.50;;;10.90;90.00;;;;;;5000171;28;20045;-82
2021/12/29 04:01:25;;;;;;;7.07;3.30;;;10.90;90.20;;;;;;4996145;28;20014;-83
2021/12/29 04:03:51;;;;;;;6.03;3.03;;;10.90;89.90;;;;;;5006036;28;20081;-81
2021/12/29 04:06:18;;;;;;;7.45;3.30;;;10.90;90.00;;;;;;4994015;28;20135;-81
2021/12/29 04:08:44;;;;;;;6.65;3.28;;;10.90;90.00;;;;;;4994186;28;20033;-81
2021/12/29 04:11:09;;;;;;;6.28;2.90;;;10.90;90.00;;;;;;4996257;28;20560;-81
2021/12/29 04:13:36;;;;;;;5.82;3.03;;;10.90;90.00;;;;;;4997002;28;20112;-80
2021/12/29 04:16:02;;;;;;;4.13;2.22;;;11.00;90.00;;;;;;4994444;28;20026;-81
2021/12/29 04:18:27;;;;;;;6.05;2.50;;;11.00;90.00;;;;;;4994004;28;20034;-81
2021/12/29 04:21:00;;;;;;;7.13;2.55;;;11.00;90.00;;;;;;5004948;28;20040;-81
2021/12/29 04:23:35;;;;;;;8.27;3.15;;;11.00;89.90;;;;;;4995597;28;20042;-81
2021/12/29 04:26:05;;;;;;;5.72;2.80;;;11.00;89.80;;;;;;4994571;28;20068;-81
2021/12/29 04:28:34;;;;;;;8.20;3.33;;;11.00;89.80;;;;;;4993804;28;20035;-81
2021/12/29 04:31:06;;;;;;;7.97;3.33;;;11.00;89.80;;;;;;4997882;28;20689;-79
2021/12/29 04:33:31;;;;;;;4.78;2.90;;;10.90;89.80;;;;;;5008261;28;20035;-80
2021/12/29 04:35:58;;;;;;;6.85;3.17;;;10.90;89.90;;;;;;5002075;28;20033;-81
2021/12/29 04:38:24;;;;;;;7.38;3.40;;;11.00;89.90;;;;;;4996997;28;20034;-79
2021/12/29 04:40:51;;;;;;;5.70;2.83;;;11.00;89.90;;;;;;5003582;28;20033;-78
2021/12/29 04:43:17;;;;;;;5.78;3.15;;;11.00;89.80;;;;;;4999042;28;20033;-82
2021/12/29 04:45:43;;;;;;;6.15;3.20;;;11.00;89.80;;;;;;4992287;28;20034;-82
2021/12/29 04:48:13;;;;;;;9.07;3.55;;;11.00;89.70;;;;;;4990276;28;20109;-83
2021/12/29 04:50:40;;;;;;;7.97;3.55;;;11.00;89.80;;;;;;4987817;28;20041;-80
2021/12/29 04:53:08;;;;;;;5.47;2.58;;;11.00;89.80;;;;;;4999999;28;20418;-80
2021/12/29 04:55:34;;;;;;;5.80;2.70;;;11.00;89.80;;;;;;4995493;28;20499;-80
2021/12/29 04:58:00;;;;;;;5.60;2.40;;;11.00;89.80;;;;;;4998537;28;20018;-80
2021/12/29 05:00:29;;;;;;;6.78;2.60;;;11.00;89.70;;;;;;4990429;28;20079;-79
2021/12/29 05:02:55;;;;;;;5.90;2.88;;;11.10;89.80;;;;;;4984166;28;20038;-82
2021/12/29 05:10:40;;;;;;;4.20;2.75;;;11.00;89.50;;;;;;4996843;28;20037;-79
2021/12/29 05:13:06;;;;;;;6.28;3.08;;;11.10;89.50;;;;;;4997286;28;20026;-81
2021/12/29 05:15:31;;;;;;;5.07;2.63;;;11.00;89.40;;;;;;4995847;28;20026;-83
2021/12/29 05:17:58;;;;;;;5.78;2.88;;;11.10;89.50;;;;;;4999596;28;20501;-82
2021/12/29 05:20:27;;;;;;;5.35;2.90;;;11.10;89.50;;;;;;4990159;28;20022;-82
2021/12/29 05:22:52;;;;;;;4.75;2.55;;;11.10;89.50;;;;;;5004053;28;20082;-85
2021/12/29 05:25:18;;;;;;;4.75;3.10;;;11.10;89.50;;;;;;4990521;28;20129;-86
2021/12/29 05:27:44;;;;;;;4.88;2.85;;;11.00;89.40;;;;;;4999474;28;20014;-86
2021/12/29 05:30:10;;;;;;;5.82;2.80;;;11.00;89.50;;;;;;4987206;28;20042;-83
2021/12/29 05:32:35;;;;;;;6.43;2.90;;;11.10;89.50;;;;;;4991391;28;20072;-83
2021/12/29 05:35:01;;;;;;;4.68;2.60;;;11.00;89.50;;;;;;5000182;28;20025;-82
2021/12/29 05:37:27;;;;;;;8.05;3.13;;;11.00;89.50;;;;;;5003595;28;20424;-80
2021/12/29 05:39:52;;;;;;;4.85;2.65;;;11.00;89.60;;;;;;5000448;28;20022;-80
2021/12/29 05:42:18;;;;;;;8.40;3.92;;;11.00;89.50;;;;;;5001604;28;20066;-81
2021/12/29 05:44:43;;;;;;;4.93;3.03;;;11.00;89.40;;;;;;4995778;28;20046;-80
2021/12/29 05:47:09;;;;;;;2.70;2.22;;;11.00;89.40;;;;;;4998075;28;20034;-79
2021/12/29 05:49:34;;;;;;;5.40;2.60;;;11.00;89.50;;;;;;4989083;28;20150;-79
2021/12/29 05:52:00;;;;;;;3.85;2.40;;;11.10;89.50;;;;;;4996219;28;20026;-79
2021/12/29 05:54:27;;;;;;;2.78;1.98;;;11.10;89.50;;;;;;4991715;28;20412;-78
2021/12/29 05:56:53;;;;;;;5.90;3.30;;;11.10;89.40;;;;;;4988527;28;20161;-80
2021/12/29 05:59:19;;;;;;;4.57;2.63;;;11.00;89.30;;;;;;4998511;28;20413;-79
2021/12/29 06:01:44;;;;;;;2.83;2.13;;;10.90;89.40;;;;;;4991211;28;20026;-81
2021/12/29 06:04:10;;;;;;;3.67;2.50;;;11.00;89.70;;;;;;4998457;28;20042;-82
2021/12/29 06:06:36;;;;;;;3.67;2.45;;;11.00;89.60;;;;;;4992074;28;20026;-84
2021/12/29 06:09:02;;;;;;;3.38;2.38;;;11.00;89.60;;;;;;4988606;28;20366;-84
2021/12/29 06:11:28;;;;;;;3.47;2.33;;;11.00;89.50;;;;;;4993613;28;20053;-84
2021/12/29 06:13:54;;;;;;;3.35;2.35;;;11.00;89.50;;;;;;4995378;28;20038;-82
2021/12/29 06:16:19;;;;;;;2.70;2.20;;;11.00;89.60;;;;;;4992433;28;20022;-85
2021/12/29 06:18:45;;;;;;;3.42;2.50;;;11.00;89.60;;;;;;4996364;28;20533;-82
2021/12/29 06:21:16;;;;;;;3.08;2.30;;;11.00;89.60;;;;;;4994814;28;20034;-80
2021/12/29 06:23:46;;;;;;;2.60;1.83;;;11.00;89.50;;;;;;4999514;28;20046;-80
2021/12/29 06:26:12;;;;;;;2.70;1.95;;;11.10;89.60;;;;;;5001566;28;20027;-80
2021/12/29 06:28:37;;;;;;;3.35;2.10;;;11.00;89.50;;;;;;5002211;28;20087;-80
2021/12/29 06:31:03;;;;;;;2.80;1.70;;;11.00;89.50;;;;;;4997093;28;20033;-81
2021/12/29 06:33:28;;;;;;;4.18;2.60;;;11.10;89.60;;;;;;4991259;28;20039;-81
2021/12/29 06:35:54;;;;;;;2.67;2.15;;;11.10;89.50;;;;;;4988053;28;20045;-81
2021/12/29 06:38:20;;;;;;;2.90;2.28;;;11.10;89.40;;;;;;4997655;28;20026;-81
2021/12/29 06:40:45;;;;;;;3.25;2.25;;;11.00;90.00;;;;;;4996928;28;20066;-82
2021/12/29 06:43:11;;;;;;;2.42;2.00;;;11.10;89.50;;;;;;4991033;28;20046;-80
2021/12/29 06:45:36;;;;;;;2.13;1.80;;;11.10;89.50;;;;;;4998116;28;20031;-79
2021/12/29 06:48:02;;;;;;;1.77;1.67;;;11.00;89.40;;;;;;4999569;28;20014;-81
2021/12/29 06:50:28;;;;;;;2.55;2.30;;;11.00;89.50;;;;;;4991303;28;20030;-80
2021/12/29 06:52:53;;;;;;;2.45;2.10;;;11.00;89.30;;;;;;4993314;28;20053;-82
2021/12/29 06:55:19;;;;;;;1.83;1.70;;;10.90;89.40;;;;;;4997194;28;20058;-80
2021/12/29 06:57:45;;;;;;;1.83;1.73;;;10.90;89.50;;;;;;4982237;28;20027;-79
2021/12/29 07:00:11;;;;;;;2.83;1.90;;;10.90;89.60;;;;;;4995044;28;20026;-78
2021/12/29 07:02:37;;;;;;;1.88;1.77;;;10.90;89.50;;;;;;4995888;28;20623;-81
2021/12/29 07:05:03;;;;;;;2.03;1.73;;;10.90;89.50;;;;;;4995639;28;20034;-83
2021/12/29 07:07:28;;;;;;;3.83;2.22;;;10.90;89.50;;;;;;5003062;28;20081;-80
2021/12/29 07:09:54;;;;;;;3.22;2.60;;;10.90;89.60;;;;;;4993744;28;20350;-80
2021/12/29 07:12:20;;;;;;;2.67;2.03;;;10.90;89.50;;;;;;5000748;28;20026;-78
2021/12/29 07:14:46;;;;;;;2.30;2.10;;;10.90;89.50;;;;;;4996794;28;20025;-81
2021/12/29 07:17:12;;;;;;;3.47;1.90;;;10.90;89.60;;;;;;4996788;28;20026;-80
2021/12/29 07:19:38;;;;;;;3.85;2.10;;;11.00;89.60;;;;;;4993658;28;20540;-79
2021/12/29 07:22:04;;;;;;;5.30;2.40;;;10.90;89.40;;;;;;4991624;28;20022;-79
2021/12/29 07:24:31;;;;;;;5.40;2.40;;;10.90;89.50;;;;;;5003922;28;20030;-84
2021/12/29 07:26:56;;;;;;;4.03;2.72;;;10.90;89.60;;;;;;4993743;28;20053;-84
2021/12/29 07:29:22;;;;;;;3.50;2.20;;;11.00;89.60;;;;;;4991243;28;20477;-79
2021/12/29 07:31:48;;;;;;;5.88;2.83;;;11.00;89.60;;;;;;4989477;28;20428;-80
2021/12/29 07:34:14;;;;;;;4.20;2.85;;;11.00;89.50;;;;;;4987682;28;20035;-82
2021/12/29 07:36:40;;;;;;;3.63;2.60;;;11.00;89.40;;;;;;4987517;28;20023;-83
2021/12/29 07:39:09;;;;;;;5.47;3.45;;;11.00;89.30;;;;;;4988897;28;20031;-84
2021/12/29 07:41:36;;;;;;;6.72;3.25;;;11.00;89.20;;;;;;5007630;28;20030;-87
2021/12/29 07:44:03;;;;;;;5.45;3.55;;;11.00;89.20;;;;;;4993100;28;20489;-82
2021/12/29 07:46:33;;;;;;;9.45;4.40;;;10.90;89.80;;;;;;4985012;28;20076;-81
2021/12/29 07:49:01;;;;;;;5.80;2.88;;;10.90;89.30;;;;;;4990369;28;20022;-87
2021/12/29 07:51:27;;;;;;;7.78;3.55;;;10.80;89.30;;;;;;4992858;28;20030;-86
2021/12/29 07:53:52;;;;;;;8.23;3.72;;;10.80;89.40;;;;;;4992792;28;20156;-82
2021/12/29 07:56:18;;;;;;;10.40;4.32;;;10.80;89.50;;;;;;4984479;28;20101;-81
2021/12/29 07:58:44;;;;;;;7.40;4.10;;;10.80;89.40;;;;;;4986717;28;20223;-84
2021/12/29 08:01:09;;;;;;;7.97;3.85;;;10.70;89.50;;;;;;4991527;28;20034;-82
2021/12/29 08:03:36;;;;;;;6.22;3.28;;;10.70;89.50;;;;;;4991687;28;20077;-81
2021/12/29 08:06:01;;;;;;;5.28;3.13;;;10.60;89.60;;;;;;4984408;28;20034;-82
2021/12/29 08:08:27;;;;;;;4.68;2.78;;;10.60;89.60;;;;;;4987362;28;20027;-81
2021/12/29 08:10:53;;;;;;;9.27;4.15;;;10.60;89.60;;;;;;4985139;28;20033;-81
2021/12/29 08:13:18;;;;;;;7.03;3.83;;;10.60;89.60;;;;;;4987477;28;20015;-81
2021/12/29 08:15:44;;;;;;;6.70;4.18;;;10.60;89.70;;;;;;4991555;28;20026;-81
2021/12/29 08:18:09;;;;;;;8.15;4.00;;;10.60;89.70;;;;;;4989013;28;20033;-78
2021/12/29 08:20:36;;;;;;;6.18;3.60;;;10.60;89.80;;;;;;4990560;28;20081;-80
2021/12/29 08:23:03;;;;;;;8.50;4.70;;;10.60;89.70;;;;;;4994883;28;20029;-79
2021/12/29 08:25:29;;;;;;;7.55;4.18;;;10.60;89.70;;;;;;4985730;28;20465;-80
2021/12/29 08:27:54;;;;;;;5.88;3.67;;;10.60;89.60;;;;;;4988241;28;20034;-78
2021/12/29 08:30:20;;;;;;;11.15;5.28;;;10.60;89.70;;;;;;4986169;28;20022;-78
2021/12/29 08:32:45;;;;;;;7.28;3.97;;;10.60;89.70;;;;;;4992715;28;20023;-77
2021/12/29 08:35:11;;;;;;;10.43;4.60;;;10.50;89.60;;;;;;4989123;28;20469;-79
2021/12/29 08:37:37;;;;;;;5.68;4.00;;;10.60;89.70;;;;;;4990973;28;20409;-80
2021/12/29 08:40:07;;;;;;;9.10;5.60;;;10.60;89.60;;;;;;4985926;28;20685;-79
2021/12/29 08:42:33;;;;;;;9.18;4.32;;;10.60;89.60;;;;;;4987321;28;20023;-81
2021/12/29 08:44:58;;;;;;;8.27;5.00;;;10.60;89.60;;;;;;4981959;28;20085;-84
2021/12/29 08:47:24;;;;;;;6.53;4.18;;;10.60;89.60;;;;;;4990307;28;20026;-80
2021/12/29 08:49:50;;;;;;;9.65;5.22;;;10.60;89.60;;;;;;4991755;28;20046;-80
2021/12/29 08:52:16;;;;;;;7.95;4.80;;;10.60;89.50;;;;;;4990122;28;20022;-78
2021/12/29 08:54:42;;;;;;;8.30;5.70;;;10.60;89.60;;;;;;4992741;28;20053;-78
2021/12/29 08:57:07;;;;;;;8.35;5.22;;;10.70;89.60;;;;;;4986868;28;20105;-78
2021/12/29 08:59:33;;;;;;;11.27;6.15;;;10.70;89.60;;;;;;4989028;28;20030;-85
2021/12/29 09:01:59;;;;;;;8.63;4.88;;;10.70;89.50;;;;;;4989341;28;20027;-85
2021/12/29 09:04:24;;;;;;;9.23;5.90;;;10.70;89.50;;;;;;4987042;28;20564;-79
2021/12/29 09:06:52;;;;;;;9.70;5.47;;;10.70;89.50;;;;;;4978868;28;20544;-81
2021/12/29 09:09:21;;;;;;;9.45;5.20;;;10.60;89.50;;;;;;4982836;28;20042;-81
2021/12/29 09:11:46;;;;;;;10.30;5.03;;;10.70;89.50;;;;;;4992261;28;20030;-81
2021/12/29 09:14:12;;;;;;;6.80;5.10;;;10.60;89.50;;;;;;4988628;28;20051;-83
2021/12/29 09:16:37;;;;;;;9.05;6.20;;;10.70;89.60;;;;;;4989854;28;20057;-85
2021/12/29 09:19:04;;;;;;;8.95;6.15;;;10.70;89.50;;;;;;4988226;28;20030;-82
2021/12/29 09:21:31;;;;;;;10.40;5.70;;;10.70;89.50;;;;;;4989640;28;20458;-81
2021/12/29 09:23:57;;;;;;;11.70;6.78;;;10.70;89.40;;;;;;4990597;28;20180;-86
2021/12/29 09:26:23;;;;;;;9.27;6.35;;;10.70;89.40;;;;;;4987280;28;20371;-81
2021/12/29 09:28:50;;;;;;;13.13;7.13;;;10.70;89.40;;;;;;4990600;28;20084;-79
2021/12/29 09:31:18;;;;;;;9.75;5.70;;;10.70;89.30;;;;;;4986128;28;20098;-81
2021/12/29 09:33:45;;;;;;;8.65;5.55;;;10.70;89.40;;;;;;4984656;28;20065;-81
2021/12/29 09:36:10;;;;;;;10.20;5.68;;;10.70;89.30;;;;;;4999249;28;20030;-82
2021/12/29 09:38:40;;;;;;;8.32;5.47;;;10.70;89.30;;;;;;4985500;28;20038;-81
2021/12/29 09:41:08;;;;;;;11.45;7.28;;;10.60;89.30;;;;;;4987650;28;20053;-82
2021/12/29 09:43:34;;;;;;;9.95;6.22;;;10.60;89.40;;;;;;4991341;28;20043;-84
2021/12/29 09:46:00;;;;;;;9.63;6.38;;;10.60;89.40;;;;;;4988746;28;20050;-80
2021/12/29 09:48:26;;;;;;;12.10;7.50;;;10.60;89.40;;;;;;4991682;28;20512;-80
2021/12/29 09:50:52;;;;;;;9.63;6.45;;;10.60;89.40;;;;;;4989660;28;20058;-81
2021/12/29 09:53:19;;;;;;;11.70;6.50;;;10.60;89.50;;;;;;4985102;28;20030;-82
2021/12/29 09:55:46;;;;;;;10.85;6.80;;;10.60;89.50;;;;;;4986114;28;20034;-78
2021/12/29 09:58:13;;;;;;;10.13;6.63;;;10.60;89.40;;;;;;4985896;28;20030;-78
2021/12/29 10:00:52;;;;;;;9.90;5.60;;;10.60;89.40;;;;;;4988527;28;20026;-82
2021/12/29 10:03:19;;;;;;;8.68;5.25;;;10.60;89.40;;;;;;4981049;28;20092;-81
2021/12/29 10:05:48;;;;;;;8.15;5.78;;;10.60;89.40;;;;;;4986162;28;20061;-81
2021/12/29 10:08:19;;;;;;;11.60;7.57;;;10.60;89.40;;;;;;4989407;28;20501;-81
2021/12/29 10:10:55;;;;;;;11.70;7.15;;;10.60;89.40;;;;;;4987913;28;20107;-81
2021/12/29 10:13:20;;;;;;;12.18;7.38;;;10.60;89.40;;;;;;4981818;28;20113;-80
2021/12/29 10:15:52;;;;;;;11.75;7.10;;;10.50;89.40;;;;;;4981238;28;20180;-80
2021/12/29 10:18:24;;;;;;;10.13;7.18;;;10.50;89.40;;;;;;4983419;28;20066;-80
2021/12/29 10:21:00;;;;;;;10.63;6.20;;;10.50;89.30;;;;;;4982639;28;20027;-81
2021/12/29 10:23:33;;;;;;;9.93;6.53;;;10.50;89.40;;;;;;4982161;28;20048;-81
2021/12/29 10:26:06;;;;;;;10.02;5.18;;;10.50;89.40;;;;;;4985643;28;20499;-81
2021/12/29 10:28:33;;;;;;;9.65;5.10;;;10.50;89.40;;;;;;4979675;28;20062;-84
2021/12/29 10:31:15;;;;;;;11.90;7.10;;;10.50;89.40;;;;;;4990472;28;20045;-85
2021/12/29 10:33:53;;;;;;;13.90;7.80;;;10.50;89.40;;;;;;4988483;28;20037;-84
2021/12/29 10:36:32;;;;;;;11.10;6.75;;;10.50;89.40;;;;;;4984348;28;20508;-83
2021/12/29 10:39:05;;;;;;;11.70;6.53;;;10.50;89.50;;;;;;4985085;28;20081;-87
2021/12/29 10:41:42;;;;;;;9.70;6.00;;;10.50;89.40;;;;;;4986407;28;20117;-83
2021/12/29 10:44:07;;;;;;;8.70;6.30;;;10.50;89.40;;;;;;4980132;28;20104;-82
2021/12/29 10:46:33;;;;;;;12.25;7.43;;;10.60;89.40;;;;;;4974578;28;20332;-84
2021/12/29 10:49:02;;;;;;;8.43;6.10;;;10.60;89.40;;;;;;4978323;28;20374;-85
2021/12/29 10:51:31;;;;;;;11.93;8.10;;;10.60;89.30;;;;;;4988746;28;20668;-85
2021/12/29 10:54:10;;;;;;;10.48;6.40;;;10.60;89.30;;;;;;4982483;28;20054;-85
2021/12/29 10:56:37;;;;;;;10.70;6.63;;;10.60;89.40;;;;;;4988027;28;20104;-82
2021/12/29 10:59:15;;;;;;;10.82;7.25;;;10.50;89.30;;;;;;4982698;28;20536;-83
2021/12/29 11:01:40;;;;;;;10.00;7.70;;;10.50;89.40;;;;;;4988602;28;20551;-85
2021/12/29 11:04:08;;;;;;;7.97;5.97;;;10.50;89.30;;;;;;4987369;28;20085;-80
2021/12/29 11:06:41;;;;;;;7.32;5.90;;;10.60;89.40;;;;;;4981175;28;20026;-87
2021/12/29 11:09:06;;;;;;;8.38;5.63;;;10.60;89.30;;;;;;4984933;28;20034;-86
2021/12/29 11:11:35;;;;;;;8.80;6.30;;;10.70;89.30;;;;;;4986487;28;20030;-88
2021/12/29 11:14:12;;;;;;;8.52;6.57;;;10.70;89.30;;;;;;4982251;28;20066;-86
2021/12/29 11:16:40;;;;;;;10.40;6.80;;;10.70;89.20;;;;;;4984475;28;20063;-86
2021/12/29 11:19:06;;;;;;;7.78;5.45;;;10.70;89.20;;;;;;4986677;28;20022;-84
2021/12/29 11:21:36;;;;;;;7.68;6.07;;;10.80;89.10;;;;;;4986195;28;20022;-88
2021/12/29 11:24:20;;;;;;;7.80;5.90;;;10.80;89.00;;;;;;4985281;28;20053;-85
2021/12/29 11:26:46;;;;;;;10.93;6.78;;;10.80;89.00;;;;;;4985324;28;20038;-85
2021/12/29 11:29:14;;;;;;;10.77;7.43;;;10.80;88.90;;;;;;4986867;28;20031;-81
2021/12/29 11:31:48;;;;;;;7.65;5.90;;;10.80;88.90;;;;;;4982474;28;20482;-85
2021/12/29 11:34:24;;;;;;;7.85;4.95;;;10.80;89.00;;;;;;4985101;28;20042;-82
2021/12/29 11:37:07;;;;;;;8.90;7.03;;;10.90;89.00;;;;;;5003247;28;20113;-91
2021/12/29 11:39:37;;;;;;;6.88;5.22;;;10.80;88.70;;;;;;4989216;28;20110;-86
2021/12/29 11:42:03;;;;;;;8.60;6.75;;;10.80;88.70;;;;;;4989722;28;20038;-85
2021/12/29 11:44:29;;;;;;;7.65;5.00;;;10.80;88.50;;;;;;4988509;28;20037;-84
2021/12/29 11:46:55;;;;;;;7.95;6.22;;;10.80;88.60;;;;;;4989947;28;20026;-90
2021/12/29 11:49:21;;;;;;;6.70;5.32;;;10.80;88.50;;;;;;4994273;28;20029;-87
2021/12/29 11:52:05;;;;;;;9.90;6.25;;;10.80;88.50;;;;;;4994567;28;20026;-87
2021/12/29 11:55:13;;;;;;;8.02;6.25;;;10.80;88.50;;;;;;4987366;28;20023;-91
2021/12/29 11:57:39;;;;;;;7.97;6.20;;;10.80;88.50;;;;;;4995388;28;20031;-90
2021/12/29 12:00:22;;;;;;;10.20;6.63;;;10.80;88.40;;;;;;4994301;28;20057;-91
2021/12/29 12:02:51;;;;;;;11.38;7.75;;;10.80;88.40;;;;;;4991284;28;20077;-93
2021/12/29 12:05:22;;;;;;;7.65;6.47;;;10.70;88.30;;;;;;4991269;28;20026;-91
2021/12/29 12:07:48;;;;;;;6.65;5.75;;;10.70;88.30;;;;;;4993412;28;20045;-90
2021/12/29 12:10:35;;;;;;;6.80;5.38;;;10.70;88.30;;;;;;4996400;28;20038;-89
2021/12/29 12:13:20;;;;;;;7.75;6.00;;;10.80;88.30;;;;;;4989926;28;20444;-87
2021/12/29 12:15:46;;;;;;;8.90;6.75;;;10.90;88.30;;;;;;4990452;28;20019;-85
2021/12/29 12:18:12;;;;;;;9.60;6.22;;;10.90;88.20;;;;;;4989523;28;20030;-83
2021/12/29 12:20:47;;;;;;;9.77;8.10;;;10.90;88.20;;;;;;4989453;28;20097;-84
2021/12/29 12:23:27;;;;;;;8.55;6.03;;;10.90;88.10;;;;;;4982443;28;20030;-86
2021/12/29 12:25:54;;;;;;;7.03;5.53;;;10.90;88.10;;;;;;4990251;28;20183;-87
2021/12/29 12:28:23;;;;;;;6.88;5.25;;;10.90;88.10;;;;;;4991478;28;20043;-89
2021/12/29 12:30:53;;;;;;;8.80;6.60;;;10.90;88.10;;;;;;4990764;28;20014;-86
2021/12/29 12:33:25;;;;;;;9.50;6.00;;;10.80;88.10;;;;;;4985657;28;20018;-87
2021/12/29 12:35:53;;;;;;;7.20;5.25;;;10.90;88.20;;;;;;4986444;28;20030;-87
2021/12/29 12:38:34;;;;;;;8.52;6.38;;;10.90;88.10;;;;;;4982162;28;20034;-83
2021/12/29 12:41:10;;;;;;;8.43;6.70;;;10.90;88.00;;;;;;4987130;28;20018;-83
2021/12/29 12:43:48;;;;;;;6.03;4.68;;;10.90;87.90;;;;;;4989923;28;20045;-85
2021/12/29 12:46:13;;;;;;;7.18;4.82;;;10.90;88.00;;;;;;4987583;28;20496;-83
2021/12/29 12:48:40;;;;;;;7.78;6.53;;;10.90;87.90;;;;;;4988096;28;20033;-81
2021/12/29 12:51:18;;;;;;;9.85;7.07;;;10.90;87.80;;;;;;4982644;28;20029;-81
2021/12/29 12:53:44;;;;;;;9.20;6.38;;;10.90;87.90;;;;;;4985427;28;20504;-81